Time;durP1;ratioP1;P1;durP2;ratioP2;P2;SDS_P1;SDS_P2;PMS_P1;PMS_P2;Temp;Humidity;BMP_temperature;BMP_pressure;BME280_temperature;BME280_humidity;BME280_pressure;Samples;Min_cycle;Max_cycle;Signal;HPM_P1;HPM_P2
2022/05/26 00:02:34;;;;;;;;;;;;;;;22.19;57.38;100889.78;4928126;29;19919;-79
2022/05/26 00:05:19;;;;;;;;;;;;;;;22.22;56.59;100893.75;4932330;29;20299;-81
2022/05/26 00:08:05;;;;;;;;;;;;;;;22.05;57.54;100893.28;4935675;29;20387;-80
2022/05/26 00:10:50;;;;;;;;;;;;;;;21.94;56.30;100897.97;4940349;28;19915;-79
2022/05/26 00:13:36;;;;;;;;;;;;;;;22.02;55.49;100899.59;4917534;29;19915;-78
2022/05/26 00:16:21;;;;;;;;;;;;;;;21.77;57.99;100901.41;4916727;29;19915;-80
2022/05/26 00:19:06;;;;;;;;;;;;;;;21.75;57.40;100901.00;4912371;29;20300;-80
2022/05/26 00:21:50;;;;;;;;;;;;;;;21.74;57.40;100904.94;4935961;29;19915;-78
2022/05/26 00:24:35;;;;;;;;;;;;;;;21.70;57.55;100915.19;4922898;29;20384;-80
2022/05/26 00:27:20;;;;;;;;;;;;;;;21.65;56.63;100913.59;4943934;29;19919;-78
2022/05/26 00:30:04;;;;;;;;;;;;;;;21.46;56.84;100921.34;4930256;29;20372;-80
2022/05/26 00:32:49;;;;;;;;;;;;;;;21.47;57.45;100922.94;4902140;29;19915;-79
2022/05/26 00:35:35;;;;;;;;;;;;;;;21.40;56.58;100911.81;4918435;29;20308;-80
2022/05/26 00:38:19;;;;;;;;;;;;;;;21.22;57.23;100912.47;4937687;29;19923;-81
2022/05/26 00:41:06;;;;;;;;;;;;;;;21.40;56.81;100918.16;4931537;29;19915;-80
2022/05/26 00:43:50;;;;;;;;;;;;;;;21.23;58.19;100925.13;4938657;29;19914;-81
2022/05/26 00:46:39;;;;;;;;;;;;;;;20.95;59.62;100927.59;4939884;29;19914;-81
2022/05/26 00:49:29;;;;;;;;;;;;;;;20.86;61.01;100927.13;4952329;28;19914;-81
2022/05/26 00:52:17;;;;;;;;;;;;;;;20.86;61.04;100918.84;4920532;29;19915;-81
2022/05/26 00:55:05;;;;;;;;;;;;;;;21.15;59.49;100915.19;4921313;29;19915;-80
2022/05/26 00:57:53;;;;;;;;;;;;;;;21.18;59.77;100914.41;4943746;28;19914;-80
2022/05/26 01:00:38;;;;;;;;;;;;;;;21.19;59.65;100924.28;4946846;28;19914;-81
2022/05/26 01:03:33;;;;;;;;;;;;;;;21.22;60.55;100922.75;4926641;29;19919;-79
2022/05/26 01:06:30;;;;;;;;;;;;;;;21.24;60.45;100917.63;4934372;29;19915;-81
2022/05/26 01:09:16;;;;;;;;;;;;;;;21.34;59.47;100920.47;4944317;29;19914;-80
2022/05/26 01:12:01;;;;;;;;;;;;;;;21.36;60.26;100913.78;4922521;29;19993;-78
2022/05/26 01:14:50;;;;;;;;;;;;;;;21.42;59.78;100918.56;4932688;29;20300;-78
2022/05/26 01:18:01;;;;;;;;;;;;;;;21.52;59.56;100908.75;4919019;29;19915;-79
2022/05/26 01:21:04;;;;;;;;;;;;;;;21.54;59.30;100907.19;4918249;29;20388;-80
2022/05/26 01:24:01;;;;;;;;;;;;;;;21.43;59.02;100919.38;4919305;29;19915;-79
2022/05/26 01:26:52;;;;;;;;;;;;;;;21.36;59.47;100916.53;4920676;29;20375;-79
2022/05/26 01:29:55;;;;;;;;;;;;;;;21.40;60.05;100917.34;4939825;29;19918;-80
2022/05/26 01:32:55;;;;;;;;;;;;;;;21.43;60.04;100917.41;4935132;29;20300;-80
2022/05/26 01:35:39;;;;;;;;;;;;;;;21.44;59.81;100920.94;4940783;29;20308;-81
2022/05/26 01:38:38;;;;;;;;;;;;;;;21.26;58.37;100929.91;4941827;28;19919;-81
2022/05/26 01:41:22;;;;;;;;;;;;;;;21.22;58.83;100920.78;4933411;29;20009;-81
2022/05/26 01:44:29;;;;;;;;;;;;;;;21.21;58.87;100927.50;4937459;29;20383;-81
2022/05/26 01:47:32;;;;;;;;;;;;;;;21.18;59.93;100919.94;4937597;29;19934;-79
2022/05/26 01:50:26;;;;;;;;;;;;;;;21.11;59.75;100921.81;4937582;29;20384;-80
2022/05/26 01:53:13;;;;;;;;;;;;;;;21.11;59.14;100924.59;4922438;29;19915;-78
2022/05/26 01:56:07;;;;;;;;;;;;;;;21.19;59.38;100918.75;4932739;29;19915;-78
2022/05/26 01:58:57;;;;;;;;;;;;;;;21.15;59.10;100909.66;4932823;29;19919;-79
2022/05/26 02:01:45;;;;;;;;;;;;;;;21.15;58.89;100897.78;4918355;29;19915;-78
2022/05/26 02:04:48;;;;;;;;;;;;;;;21.06;59.60;100898.09;4918384;29;20372;-81
2022/05/26 02:07:48;;;;;;;;;;;;;;;21.12;59.46;100896.56;4923354;29;19919;-81
2022/05/26 02:10:36;;;;;;;;;;;;;;;21.15;59.12;100895.81;4937483;29;19915;-80
2022/05/26 02:13:27;;;;;;;;;;;;;;;21.26;58.87;100898.69;4949579;28;19914;-81
2022/05/26 02:16:14;;;;;;;;;;;;;;;21.25;58.71;100902.63;4947309;28;19915;-81
2022/05/26 02:19:17;;;;;;;;;;;;;;;21.27;58.31;100911.34;4951612;28;20383;-81
2022/05/26 02:22:21;;;;;;;;;;;;;;;21.25;58.10;100914.47;4953012;28;20295;-81
2022/05/26 02:25:16;;;;;;;;;;;;;;;21.14;59.21;100921.88;4899925;29;20384;-81
2022/05/26 02:28:01;;;;;;;;;;;;;;;21.06;59.29;100920.22;4905827;29;20296;-80
2022/05/26 02:30:46;;;;;;;;;;;;;;;21.02;60.31;100924.91;4925243;29;20303;-78
2022/05/26 02:33:31;;;;;;;;;;;;;;;21.10;60.07;100932.09;4933142;28;20307;-78
2022/05/26 02:36:16;;;;;;;;;;;;;;;21.25;59.49;100936.59;4933817;29;19919;-79
2022/05/26 02:39:00;;;;;;;;;;;;;;;21.04;59.50;100928.06;4925483;29;20339;-79
2022/05/26 02:41:45;;;;;;;;;;;;;;;20.84;59.89;100941.31;4931381;29;19922;-80
2022/05/26 02:44:31;;;;;;;;;;;;;;;20.21;61.46;100935.03;4921355;29;19914;-79
2022/05/26 02:47:25;;;;;;;;;;;;;;;20.35;61.77;100933.28;4930948;29;19915;-79
2022/05/26 02:50:25;;;;;;;;;;;;;;;20.39;61.42;100927.78;4917759;29;19915;-80
2022/05/26 02:53:29;;;;;;;;;;;;;;;20.54;61.07;100937.03;4917009;29;19915;-81
2022/05/26 02:56:30;;;;;;;;;;;;;;;20.26;61.30;100932.72;4916983;29;19929;-78
2022/05/26 02:59:30;;;;;;;;;;;;;;;20.27;61.88;100934.31;4939606;28;19919;-80
2022/05/26 03:02:15;;;;;;;;;;;;;;;20.59;61.52;100934.72;4935610;29;19915;-80
2022/05/26 03:05:03;;;;;;;;;;;;;;;20.32;60.91;100936.75;4921517;29;19915;-80
2022/05/26 03:07:50;;;;;;;;;;;;;;;20.16;61.69;100947.19;4920269;29;19915;-79
2022/05/26 03:10:35;;;;;;;;;;;;;;;20.07;61.38;100954.94;4932028;29;19915;-79
2022/05/26 03:13:19;;;;;;;;;;;;;;;20.23;61.92;100954.75;4927684;29;19918;-80
2022/05/26 03:16:05;;;;;;;;;;;;;;;20.44;61.80;100953.09;4920276;29;19915;-80
2022/05/26 03:18:51;;;;;;;;;;;;;;;20.59;61.33;100956.84;4912141;29;19919;-80
2022/05/26 03:21:36;;;;;;;;;;;;;;;20.61;61.16;100959.22;4918877;29;19915;-79
2022/05/26 03:24:21;;;;;;;;;;;;;;;20.45;61.05;100954.69;4915271;29;19919;-79
2022/05/26 03:27:06;;;;;;;;;;;;;;;20.50;61.42;100959.09;4898202;29;19915;-80
2022/05/26 03:29:53;;;;;;;;;;;;;;;20.59;60.63;100969.84;4918122;29;19914;-80
2022/05/26 03:32:38;;;;;;;;;;;;;;;20.19;60.53;100970.50;4949861;28;19922;-80
2022/05/26 03:41:29;;;;;;;;;;;;;;;19.74;62.46;100974.19;4936671;28;19915;-79
2022/05/26 03:44:14;;;;;;;;;;;;;;;19.98;62.63;100971.00;4929083;29;19919;-80
2022/05/26 03:46:59;;;;;;;;;;;;;;;20.14;61.86;100979.91;4898850;29;19915;-79
2022/05/26 03:49:43;;;;;;;;;;;;;;;20.11;61.65;100988.16;4917953;29;19919;-79
2022/05/26 03:52:27;;;;;;;;;;;;;;;20.40;60.73;100984.63;4912144;29;19916;-78
2022/05/26 03:55:12;;;;;;;;;;;;;;;20.41;60.56;100984.25;4916871;29;20376;-79
2022/05/26 03:57:59;;;;;;;;;;;;;;;20.26;61.30;100981.66;4922346;29;19923;-79
2022/05/26 04:00:43;;;;;;;;;;;;;;;20.32;61.59;100978.19;4924177;29;19922;-79
2022/05/26 04:03:28;;;;;;;;;;;;;;;20.51;60.82;100982.78;4933152;29;19915;-80
2022/05/26 04:06:13;;;;;;;;;;;;;;;20.64;60.15;100983.34;4915751;29;20388;-80
2022/05/26 04:08:59;;;;;;;;;;;;;;;20.59;59.81;100986.44;4903648;29;19915;-79
2022/05/26 04:11:43;;;;;;;;;;;;;;;20.19;60.60;100987.88;4941955;29;19918;-79
2022/05/26 04:14:28;;;;;;;;;;;;;;;20.35;60.38;100991.28;4959026;28;19915;-81
2022/05/26 04:17:12;;;;;;;;;;;;;;;20.47;60.07;100996.53;4938098;28;19915;-79
2022/05/26 04:19:57;;;;;;;;;;;;;;;20.58;59.82;101007.72;4920245;29;19919;-80
2022/05/26 04:22:42;;;;;;;;;;;;;;;20.54;60.62;101000.56;4936246;29;19915;-80
2022/05/26 04:25:26;;;;;;;;;;;;;;;20.66;60.82;101000.34;4919945;29;19915;-78
2022/05/26 04:28:11;;;;;;;;;;;;;;;20.88;59.70;101002.16;4924360;29;19915;-80
2022/05/26 04:30:55;;;;;;;;;;;;;;;21.11;58.42;101005.59;4928664;29;19918;-80
2022/05/26 04:33:40;;;;;;;;;;;;;;;21.11;58.68;101015.84;4931856;29;19914;-81
2022/05/26 04:36:24;;;;;;;;;;;;;;;21.53;58.42;101023.81;4930192;29;19923;-79
2022/05/26 04:39:08;;;;;;;;;;;;;;;21.85;56.95;101030.41;4915879;29;19919;-81
2022/05/26 04:41:57;;;;;;;;;;;;;;;21.81;57.08;101035.13;4937550;29;19938;-81
2022/05/26 04:44:43;;;;;;;;;;;;;;;21.74;57.73;101037.81;4947606;29;19915;-81
2022/05/26 04:47:28;;;;;;;;;;;;;;;21.76;57.74;101052.09;4928300;28;19915;-81
2022/05/26 04:50:12;;;;;;;;;;;;;;;22.15;56.75;101050.44;4932315;28;19915;-80
2022/05/26 04:52:57;;;;;;;;;;;;;;;22.10;56.57;101059.09;4918951;29;19915;-81
2022/05/26 04:55:41;;;;;;;;;;;;;;;22.06;56.97;101066.59;4916832;29;19914;-81
2022/05/26 04:58:26;;;;;;;;;;;;;;;22.16;57.07;101071.41;4928543;29;19914;-80
2022/05/26 05:01:12;;;;;;;;;;;;;;;22.54;56.31;101060.97;4953524;28;19914;-78
2022/05/26 05:03:56;;;;;;;;;;;;;;;22.84;55.31;101064.31;4956745;28;20458;-80
2022/05/26 05:06:41;;;;;;;;;;;;;;;23.23;54.27;101069.97;4939199;29;19915;-80
2022/05/26 05:09:25;;;;;;;;;;;;;;;23.20;54.26;101079.09;4933549;28;19915;-80
2022/05/26 05:12:12;;;;;;;;;;;;;;;23.28;53.43;101066.03;4930184;29;19915;-79
2022/05/26 05:14:57;;;;;;;;;;;;;;;23.39;53.36;101075.19;4922204;29;19914;-80
2022/05/26 05:17:44;;;;;;;;;;;;;;;23.50;53.40;101069.69;4920333;29;19914;-79
2022/05/26 05:20:28;;;;;;;;;;;;;;;23.65;52.57;101074.06;4938152;29;19919;-79
2022/05/26 05:23:14;;;;;;;;;;;;;;;23.81;52.46;101078.03;4926138;29;19915;-79
2022/05/26 05:26:00;;;;;;;;;;;;;;;24.12;51.92;101081.22;4917002;29;19915;-79
2022/05/26 05:28:49;;;;;;;;;;;;;;;24.12;51.42;101082.00;4943089;28;19915;-79
2022/05/26 05:31:37;;;;;;;;;;;;;;;24.39;51.03;101087.13;4935541;29;19923;-81
2022/05/26 05:34:26;;;;;;;;;;;;;;;24.14;51.40;101092.72;4920637;29;20296;-80
2022/05/26 05:37:10;;;;;;;;;;;;;;;24.07;51.27;101092.72;4917825;29;20312;-81
2022/05/26 05:39:55;;;;;;;;;;;;;;;24.22;50.88;101099.91;4920985;29;19919;-79
2022/05/26 05:42:41;;;;;;;;;;;;;;;24.05;51.68;101106.22;4927900;29;20151;-79
2022/05/26 05:45:25;;;;;;;;;;;;;;;23.85;51.73;101112.16;4927505;29;19915;-78
2022/05/26 05:48:10;;;;;;;;;;;;;;;23.97;51.35;101121.31;4932009;29;19911;-78
2022/05/26 05:50:54;;;;;;;;;;;;;;;23.96;51.65;101114.16;4931859;29;19915;-78
2022/05/26 05:53:39;;;;;;;;;;;;;;;23.83;53.22;101122.88;4928277;29;19915;-81
2022/05/26 05:56:24;;;;;;;;;;;;;;;24.07;53.15;101134.41;4967959;23;19922;-80
2022/05/26 05:59:08;;;;;;;;;;;;;;;24.22;52.15;101145.16;4952100;29;19922;-80
2022/05/26 06:01:54;;;;;;;;;;;;;;;24.22;52.83;101147.16;4955262;29;19919;-79
2022/05/26 06:04:45;;;;;;;;;;;;;;;23.75;53.53;101149.06;4953593;28;19914;-80
2022/05/26 06:07:29;;;;;;;;;;;;;;;24.02;52.20;101148.69;4957139;28;19914;-81
2022/05/26 06:10:14;;;;;;;;;;;;;;;24.08;51.81;101158.22;4955278;28;19918;-81
2022/05/26 06:12:59;;;;;;;;;;;;;;;24.10;52.01;101161.41;4954800;28;20413;-80
2022/05/26 06:15:46;;;;;;;;;;;;;;;23.95;52.79;101160.59;4948479;28;19914;-80
2022/05/26 06:18:31;;;;;;;;;;;;;;;24.02;52.19;101168.94;4961188;28;20395;-80
2022/05/26 06:21:16;;;;;;;;;;;;;;;24.10;51.54;101164.16;4955694;28;20371;-80
2022/05/26 06:24:01;;;;;;;;;;;;;;;24.13;53.23;101169.72;4958355;28;19915;-80
2022/05/26 06:26:47;;;;;;;;;;;;;;;24.04;53.65;101176.88;4956537;28;19929;-79
2022/05/26 06:29:50;;;;;;;;;;;;;;;23.97;53.36;101177.69;4954301;28;20327;-79
2022/05/26 06:39:00;;;;;;;;;;;;;;;24.28;50.85;101198.34;4952169;28;20391;-80
2022/05/26 06:44:51;;;;;;;;;;;;;;;23.88;52.84;101208.59;4955017;29;19915;-80
2022/05/26 06:47:35;;;;;;;;;;;;;;;24.98;50.19;101213.41;4953737;28;19914;-80
2022/05/26 06:50:19;;;;;;;;;;;;;;;24.79;50.34;101213.84;4957420;29;20319;-80
2022/05/26 06:53:04;;;;;;;;;;;;;;;25.57;48.44;101227.56;4953508;28;19914;-80
2022/05/26 06:55:48;;;;;;;;;;;;;;;26.32;47.09;101228.69;4952929;29;20387;-80
2022/05/26 06:58:32;;;;;;;;;;;;;;;25.59;49.18;101225.97;4957980;28;19915;-80
2022/05/26 07:01:17;;;;;;;;;;;;;;;25.40;50.02;101227.19;4944361;28;20905;-80
2022/05/26 07:04:01;;;;;;;;;;;;;;;25.65;49.61;101229.88;4950691;28;19914;-80
2022/05/26 07:06:50;;;;;;;;;;;;;;;26.18;47.51;101234.38;4947079;28;19941;-84
2022/05/26 07:09:34;;;;;;;;;;;;;;;26.81;46.34;101241.44;4976891;28;19918;-81
2022/05/26 07:12:19;;;;;;;;;;;;;;;26.11;49.45;101245.59;4950443;28;19918;-83
2022/05/26 07:15:04;;;;;;;;;;;;;;;27.00;47.07;101252.03;4958628;29;19922;-81
2022/05/26 07:17:49;;;;;;;;;;;;;;;27.09;46.61;101255.13;4951162;28;19915;-83
2022/05/26 07:20:36;;;;;;;;;;;;;;;26.60;48.53;101242.44;4942076;28;19926;-80
2022/05/26 07:23:21;;;;;;;;;;;;;;;27.74;45.58;101249.59;4957159;28;20295;-80
2022/05/26 07:26:06;;;;;;;;;;;;;;;26.75;48.44;101245.88;4954363;28;19918;-80
2022/05/26 07:28:52;;;;;;;;;;;;;;;24.76;54.52;101246.00;4953506;28;20399;-80
2022/05/26 07:31:36;;;;;;;;;;;;;;;25.51;51.63;101229.94;4948068;29;19927;-80
2022/05/26 07:34:20;;;;;;;;;;;;;;;25.78;51.67;101233.81;4960642;28;19915;-80
2022/05/26 07:43:12;;;;;;;;;;;;;;;25.88;51.89;101237.75;4957403;28;19918;-81
2022/05/26 07:45:57;;;;;;;;;;;;;;;26.26;50.84;101242.28;4952895;28;20299;-80
2022/05/26 07:48:41;;;;;;;;;;;;;;;25.74;51.04;101241.41;4959382;28;20302;-81
2022/05/26 07:51:26;;;;;;;;;;;;;;;25.86;50.83;101245.72;4959108;28;20374;-82
2022/05/26 07:54:11;;;;;;;;;;;;;;;26.18;50.03;101251.88;4957901;28;19915;-81
2022/05/26 07:56:56;;;;;;;;;;;;;;;25.89;51.37;101247.69;4950739;28;19914;-81
2022/05/26 07:59:43;;;;;;;;;;;;;;;25.98;50.63;101248.84;4957715;28;20186;-81
2022/05/26 08:02:28;;;;;;;;;;;;;;;26.12;51.00;101242.38;4959032;28;19914;-81
2022/05/26 08:05:13;;;;;;;;;;;;;;;26.23;50.35;101245.91;4954800;29;19918;-81
2022/05/26 08:07:57;;;;;;;;;;;;;;;25.78;52.10;101258.09;4948521;28;19914;-85
2022/05/26 08:10:42;;;;;;;;;;;;;;;25.70;51.59;101260.13;4960581;28;19914;-84
2022/05/26 08:13:27;;;;;;;;;;;;;;;26.41;49.61;101258.94;4963251;28;20290;-83
2022/05/26 08:16:12;;;;;;;;;;;;;;;26.66;49.28;101260.31;4966193;28;19915;-85
2022/05/26 08:18:57;;;;;;;;;;;;;;;26.66;49.26;101251.16;4956902;28;19914;-84
2022/05/26 08:21:42;;;;;;;;;;;;;;;26.51;50.42;101249.69;4964720;28;19914;-84
2022/05/26 08:24:26;;;;;;;;;;;;;;;26.01;51.51;101247.22;4939534;29;19914;-83
2022/05/26 08:27:14;;;;;;;;;;;;;;;26.37;51.32;101236.63;4943909;29;19914;-84
2022/05/26 08:29:59;;;;;;;;;;;;;;;26.83;50.62;101247.38;4947750;28;19922;-83
2022/05/26 08:32:44;;;;;;;;;;;;;;;26.80;50.81;101249.03;4949777;28;20326;-83
2022/05/26 08:35:28;;;;;;;;;;;;;;;26.55;50.88;101261.59;4945385;28;19914;-83
2022/05/26 08:38:13;;;;;;;;;;;;;;;27.16;49.70;101252.28;4941772;29;19914;-83
2022/05/26 08:40:59;;;;;;;;;;;;;;;27.46;50.14;101251.53;4946482;29;19922;-83
2022/05/26 08:43:46;;;;;;;;;;;;;;;27.69;49.29;101255.66;4946562;29;19940;-84
2022/05/26 08:46:44;;;;;;;;;;;;;;;27.65;48.33;101252.91;4950722;29;19914;-87
2022/05/26 08:49:33;;;;;;;;;;;;;;;27.21;48.71;101262.19;4959397;29;20296;-85
2022/05/26 08:52:34;;;;;;;;;;;;;;;27.71;47.89;101256.81;4960058;28;20407;-85
2022/05/26 08:55:31;;;;;;;37.15;9.65;;;;;;;28.20;47.00;101260.94;4960601;28;20434;-87
2022/05/26 08:58:32;;;;;;;30.67;8.00;;;;;;;28.01;47.68;101254.00;4951771;28;20035;-83
2022/05/26 09:01:21;;;;;;;23.60;6.63;;;;;;;27.87;47.67;101245.03;4959173;28;20043;-86
2022/05/26 09:04:06;;;;;;;23.63;8.05;;;;;;;27.87;47.42;101253.44;4951269;28;20501;-85
2022/05/26 09:13:26;;;;;;;28.48;7.93;;;;;;;27.65;47.92;101241.72;4954590;29;20044;-85
2022/05/26 09:16:13;;;;;;;30.70;9.57;;;;;;;28.00;47.14;101246.84;4959334;28;20050;-85
2022/05/26 09:19:21;;;;;;;15.95;7.57;;;;;;;27.90;47.23;101244.19;4957094;28;20050;-84
2022/05/26 09:22:30;;;;;;;26.42;6.53;;;;;;;28.16;47.53;101245.44;4958179;29;20050;-85
2022/05/26 09:25:43;;;;;;;22.35;6.50;;;;;;;27.92;47.92;101241.78;4959959;28;20046;-84
2022/05/26 09:28:37;;;;;;;15.45;7.18;;;;;;;27.97;47.18;101244.88;4977208;28;20039;-84
2022/05/26 09:31:35;;;;;;;18.77;7.65;;;;;;;27.93;46.97;101235.78;4962574;28;20908;-84
2022/05/26 09:34:32;;;;;;;14.43;5.93;;;;;;;28.12;46.25;101253.09;4962840;28;20047;-84
2022/05/26 09:37:37;;;;;;;14.98;6.68;;;;;;;27.81;46.01;101253.09;4960710;29;20539;-84
2022/05/26 09:40:32;;;;;;;15.30;6.93;;;;;;;27.96;45.73;101246.09;4960340;28;20043;-84
2022/05/26 09:43:16;;;;;;;;;;;;;;;28.11;46.25;101257.06;4961121;28;20036;-84
2022/05/26 09:46:11;;;;;;;14.88;6.85;;;;;;;28.00;47.11;101251.63;4955643;28;20361;-84
2022/05/26 09:49:08;;;;;;;21.17;7.28;;;;;;;28.17;45.66;101263.81;4957996;28;20035;-83
2022/05/26 09:52:11;;;;;;;22.48;6.60;;;;;;;28.00;46.87;101254.44;4954986;28;20035;-82
2022/05/26 09:55:18;;;;;;;20.85;6.93;;;;;;;28.14;46.29;101261.88;4957642;28;20050;-82
2022/05/26 09:58:27;;;;;;;20.30;8.25;;;;;;;28.04;45.79;101258.75;4955826;28;20054;-84
2022/05/26 10:01:37;;;;;;;13.98;6.47;;;;;;;28.04;46.25;101264.34;4957761;29;20046;-83
2022/05/26 10:04:41;;;;;;;41.65;8.85;;;;;;;28.00;46.41;101260.81;4963593;28;20042;-82
2022/05/26 10:07:51;;;;;;;27.67;7.35;;;;;;;27.93;45.34;101258.13;4948066;28;20050;-82
2022/05/26 10:10:46;;;;;;;13.32;6.82;;;;;;;27.92;46.23;101273.31;4962109;28;20034;-83
2022/05/26 10:13:43;;;;;;;;;;;;;;;27.86;45.30;101279.78;4946378;29;20054;-82
2022/05/26 10:16:27;;;;;;;29.95;7.07;;;;;;;27.90;44.88;101275.72;4952234;28;19914;-82
2022/05/26 10:19:30;;;;;;;14.90;7.13;;;;;;;27.85;45.53;101276.19;4960087;28;20050;-82
2022/05/26 10:22:30;;;;;;;18.77;7.25;;;;;;;27.86;46.18;101275.00;4966667;28;20066;-82
2022/05/26 10:25:32;;;;;;;14.55;5.72;;;;;;;27.81;46.07;101274.66;4954622;28;20047;-82
2022/05/26 10:28:43;;;;;;;26.50;7.28;;;;;;;27.79;46.22;101285.47;4947039;28;20412;-82
2022/05/26 10:31:33;;;;;;;12.73;6.38;;;;;;;27.62;46.51;101276.13;4957427;28;20404;-82
2022/05/26 10:34:24;;;;;;;20.00;5.97;;;;;;;27.64;46.08;101282.84;4955481;28;20111;-82
2022/05/26 10:37:36;;;;;;;17.25;6.53;;;;;;;27.58;45.45;101284.53;4956441;28;20050;-82
2022/05/26 10:40:31;;;;;;;12.43;6.25;;;;;;;27.53;46.14;101284.22;4952755;28;20036;-82
2022/05/26 10:43:39;;;;;;;15.32;5.95;;;;;;;27.56;45.26;101275.78;4949844;28;20055;-82
2022/05/26 10:46:27;;;;;;;45.25;8.82;;;;;;;27.52;46.00;101277.03;4963033;28;20420;-81
2022/05/26 10:49:31;;;;;;;28.77;6.93;;;;;;;27.51;46.37;101289.41;4950650;28;20044;-82
2022/05/26 10:52:36;;;;;;;;;;;;;;;27.54;46.09;101281.00;4959260;28;20047;-82
2022/05/26 10:55:39;;;;;;;15.88;6.18;;;;;;;27.48;45.03;101271.44;4966293;28;19923;-81
2022/05/26 10:58:42;;;;;;;17.55;5.85;;;;;;;27.51;44.92;101275.44;4955913;28;20040;-81
2022/05/26 11:01:45;;;;;;;14.63;5.70;;;;;;;27.45;44.98;101277.09;4953683;28;20051;-82
2022/05/26 11:04:45;;;;;;;16.17;5.93;;;;;;;27.44;44.42;101276.28;4952798;28;20043;-82
2022/05/26 11:07:36;;;;;;;37.33;7.03;;;;;;;27.35;45.00;101267.63;4964977;28;20050;-82
2022/05/26 11:10:47;;;;;;;14.35;6.15;;;;;;;27.38;44.61;101269.56;4959934;28;20058;-82
2022/05/26 11:13:53;;;;;;;14.38;5.28;;;;;;;27.38;44.49;101279.97;4951773;28;20428;-83
2022/05/26 11:20:01;;;;;;;13.80;5.70;;;;;;;27.46;45.02;101265.50;4952090;28;20046;-81
2022/05/26 11:22:46;;;;;;;;;;;;;;;27.46;44.93;101273.88;4955690;28;20035;-82
2022/05/26 11:25:41;;;;;;;28.60;6.13;;;;;;;27.42;44.60;101259.16;4949196;28;19918;-82
2022/05/26 11:28:44;;;;;;;10.63;4.90;;;;;;;27.36;44.75;101252.44;4949839;28;20043;-83
2022/05/26 11:37:59;;;;;;;16.88;4.90;;;;;;;27.44;44.31;101253.13;4952545;28;20038;-81
2022/05/26 11:40:52;;;;;;;12.07;5.30;;;;;;;27.39;45.04;101250.81;4953989;28;20035;-83
2022/05/26 11:43:57;;;;;;;14.00;5.53;;;;;;;27.33;45.63;101246.91;4949333;29;20035;-83
2022/05/26 11:46:43;;;;;;;12.27;4.93;;;;;;;27.40;46.47;101247.59;4949561;29;20050;-83
2022/05/26 11:49:43;;;;;;;21.73;6.75;;;;;;;27.40;46.13;101258.78;4952169;28;20054;-83
2022/05/26 11:52:33;;;;;;;18.80;7.18;;;;;;;27.28;47.17;101261.34;4956538;28;20043;-82
2022/05/26 11:55:50;;;;;;;19.27;6.93;;;;;;;27.20;46.44;101250.22;4980421;28;20519;-81
2022/05/26 11:58:42;;;;;;;24.17;7.30;;;;;;;27.09;45.99;101243.97;4972525;28;20512;-83
2022/05/26 12:01:58;;;;;;;20.35;6.63;;;;;;;27.12;45.93;101248.72;4965581;23;20051;-64
2022/05/26 12:04:45;;;;;;;18.35;7.00;;;;;;;27.12;45.67;101247.94;4904478;29;20041;-62
2022/05/26 12:07:38;;;;;;;14.20;5.57;;;;;;;27.11;45.34;101247.16;4895858;29;20063;-62
2022/05/26 12:10:27;;;;;;;15.23;6.90;;;;;;;27.20;45.30;101249.44;4895774;29;20122;-63
2022/05/26 12:13:25;;;;;;;14.55;5.78;;;;;;;27.24;45.82;101242.59;4895690;29;20053;-61
2022/05/26 12:16:22;;;;;;;16.15;7.28;;;;;;;27.22;46.59;101239.44;4884227;29;20044;-61
2022/05/26 12:19:10;;;;;;;16.30;7.05;;;;;;;27.15;45.72;101228.34;4895922;29;20060;-63
2022/05/26 12:22:31;;;;;;;30.13;6.60;;;;;;;27.23;45.82;101227.03;4901973;29;20041;-61
2022/05/26 12:25:16;;;;;;;20.02;6.38;;;;;;;27.22;46.18;101225.50;4880798;29;20045;-61
2022/05/26 12:28:10;;;;;;;23.20;7.18;;;;;;;27.18;46.31;101227.50;4894714;29;20040;-62
2022/05/26 12:30:55;;;;;;;16.20;6.22;;;;;;;27.21;46.13;101221.09;4898846;29;20048;-62
2022/05/26 12:34:07;;;;;;;16.27;6.63;;;;;;;27.22;45.63;101221.91;4901839;29;20040;-61
2022/05/26 12:36:58;;;;;;;20.67;7.38;;;;;;;27.33;45.76;101218.97;4909622;29;20067;-63
2022/05/26 12:40:02;;;;;;;14.32;6.30;;;;;;;27.37;45.93;101214.13;4913109;29;20400;-64
2022/05/26 12:43:24;;;;;;;15.07;5.97;;;;;;;27.30;46.32;101212.22;4902924;29;20048;-62
2022/05/26 12:46:33;;;;;;;19.10;8.00;;;;;;;27.35;45.90;101206.16;4902635;29;20041;-61
2022/05/26 12:49:33;;;;;;;13.27;5.63;;;;;;;27.42;45.48;101208.09;4899173;29;20481;-62
2022/05/26 12:52:23;;;;;;;17.90;5.93;;;;;;;27.52;45.27;101207.19;4898642;29;20393;-62
2022/05/26 12:55:28;;;;;;;17.75;6.20;;;;;;;27.55;45.53;101200.75;4898754;29;20048;-63
2022/05/26 12:58:21;;;;;;;18.30;6.25;;;;;;;27.59;45.17;101198.69;4906281;29;20047;-62
2022/05/26 13:01:13;;;;;;;12.13;5.70;;;;;;;27.53;44.96;101194.81;4922900;29;20040;-62
2022/05/26 13:04:05;;;;;;;28.45;6.85;;;;;;;27.51;45.48;101183.25;4893152;29;20409;-63
2022/05/26 13:06:52;;;;;;;18.65;5.85;;;;;;;27.49;46.08;101183.66;4901349;29;20051;-62
2022/05/26 13:09:51;;;;;;;16.30;7.30;;;;;;;27.49;46.12;101180.03;4898923;29;20052;-61
2022/05/26 13:12:36;;;;;;;12.93;5.40;;;;;;;27.52;46.12;101182.84;4898653;29;20043;-62
2022/05/26 13:15:27;;;;;;;18.95;6.32;;;;;;;27.51;45.86;101177.66;4898554;29;20052;-62
2022/05/26 13:18:24;;;;;;;12.90;6.25;;;;;;;27.45;46.22;101173.72;4898425;29;20052;-61
2022/05/26 13:21:28;;;;;;;15.65;5.38;;;;;;;27.46;45.73;101166.91;4898451;29;20047;-62
2022/05/26 13:24:23;;;;;;;15.82;6.53;;;;;;;27.56;45.63;101171.59;4909565;29;20051;-62
2022/05/26 13:27:09;;;;;;;;;;;;;;;27.58;45.68;101166.41;4898842;29;20052;-61
2022/05/26 13:33:11;;;;;;;21.75;6.13;;;;;;;27.54;47.37;101160.84;4897276;29;20496;-62
2022/05/26 13:36:01;;;;;;;17.58;6.93;;;;;;;27.60;46.90;101166.75;4898634;29;20421;-61
2022/05/26 13:38:46;;;;;;;13.48;6.13;;;;;;;27.64;46.90;101153.50;4902263;29;20508;-63
2022/05/26 13:41:35;;;;;;;21.48;7.72;;;;;;;27.74;46.05;101149.75;4899049;29;20507;-63
2022/05/26 13:44:35;;;;;;;15.65;5.32;;;;;;;27.75;47.05;101145.75;4898391;29;20516;-62
2022/05/26 13:47:20;;;;;;;23.35;6.95;;;;;;;27.58;46.99;101136.41;4905818;29;20056;-63
2022/05/26 13:50:09;;;;;;;23.48;6.57;;;;;;;27.63;47.08;101137.97;4903489;29;20420;-63
2022/05/26 13:52:57;;;;;;;26.23;7.82;;;;;;;27.65;47.17;101129.94;4897795;29;20064;-62
2022/05/26 13:55:48;;;;;;;23.23;7.75;;;;;;;27.79;47.40;101131.72;4898200;29;20408;-62
2022/05/26 13:58:34;;;;;;;22.23;7.03;;;;;;;27.86;47.08;101137.22;4900189;29;20048;-61
2022/05/26 14:01:24;;;;;;;14.10;6.82;;;;;;;27.85;47.36;101127.25;4900182;29;20047;-63
2022/05/26 14:04:25;;;;;;;21.35;6.78;;;;;;;27.98;47.49;101137.44;4897803;29;20052;-63
2022/05/26 14:07:33;;;;;;;25.35;6.88;;;;;;;27.95;47.03;101135.47;4897723;29;20052;-63
2022/05/26 14:10:50;;;;;;;15.95;7.25;;;;;;;27.77;48.53;101132.16;4905526;29;20052;-62
2022/05/26 14:13:35;;;;;;;16.55;7.00;;;;;;;27.91;48.37;101131.94;4898162;29;20036;-61
2022/05/26 14:16:26;;;;;;;15.70;6.50;;;;;;;27.87;47.90;101125.63;4897769;29;20052;-61
2022/05/26 14:19:20;;;;;;;26.33;9.23;;;;;;;27.89;46.96;101131.56;4897346;29;20055;-62
2022/05/26 14:22:06;;;;;;;16.58;7.72;;;;;;;27.90;47.16;101127.56;4912018;29;20047;-61
2022/05/26 14:24:53;;;;;;;16.75;7.43;;;;;;;27.92;46.94;101124.34;4913943;29;20052;-64
2022/05/26 14:27:54;;;;;;;15.57;6.47;;;;;;;27.96;47.16;101119.47;4915011;29;20071;-61
2022/05/26 14:30:51;;;;;;;17.90;7.15;;;;;;;28.03;47.56;101122.97;4900290;29;20044;-61
2022/05/26 14:33:36;;;;;;;19.02;5.90;;;;;;;28.05;46.58;101123.31;4904816;29;20051;-62
2022/05/26 14:36:21;;;;;;;19.10;7.35;;;;;;;28.06;46.37;101116.50;4911727;29;20048;-61
2022/05/26 14:39:06;;;;;;;16.23;6.45;;;;;;;28.05;46.21;101111.34;4907227;29;20051;-62
2022/05/26 14:41:53;;;;;;;23.55;8.23;;;;;;;28.12;46.42;101107.66;4894482;29;20037;-62
2022/05/26 14:44:37;;;;;;;21.48;8.43;;;;;;;28.12;46.96;101104.88;4891952;29;20048;-61